createdAt,value
2022-09-27T00:00:00.229Z,10.31
2022-09-27T00:00:10.491Z,10.34
2022-09-27T00:00:20.752Z,10.33
2022-09-27T00:00:31.014Z,10.33
2022-09-27T00:00:41.280Z,10.36
2022-09-27T00:00:51.540Z,10.33
2022-09-27T00:01:01.800Z,10.34
2022-09-27T00:01:12.157Z,10.34
2022-09-27T00:01:22.539Z,10.33
2022-09-27T00:01:32.830Z,10.33
2022-09-27T00:01:43.102Z,10.33
2022-09-27T00:01:53.465Z,10.33
2022-09-27T00:02:03.782Z,10.33
2022-09-27T00:02:14.151Z,10.34
2022-09-27T00:02:24.480Z,10.33
2022-09-27T00:02:34.765Z,10.34
2022-09-27T00:02:45.177Z,10.33
2022-09-27T00:02:55.458Z,10.34
2022-09-27T00:03:05.850Z,10.33
2022-09-27T00:03:16.109Z,10.33
2022-09-27T00:03:26.374Z,10.31
2022-09-27T00:03:36.633Z,10.31
2022-09-27T00:03:46.900Z,10.33
2022-09-27T00:03:57.158Z,10.34
2022-09-27T00:04:07.423Z,10.33
2022-09-27T00:04:17.684Z,10.33
2022-09-27T00:04:27.946Z,10.33
2022-09-27T00:04:38.208Z,10.34
2022-09-27T00:04:48.471Z,10.33
2022-09-27T00:04:58.731Z,10.33
2022-09-27T00:05:09.003Z,10.33
2022-09-27T00:05:19.257Z,10.34
2022-09-27T00:05:29.518Z,10.33
2022-09-27T00:05:39.798Z,10.33
2022-09-27T00:05:50.063Z,10.34
2022-09-27T00:06:00.325Z,10.34
2022-09-27T00:06:10.586Z,10.34
2022-09-27T00:06:20.851Z,10.33
2022-09-27T00:06:31.111Z,10.33
2022-09-27T00:06:41.396Z,10.33
2022-09-27T00:06:51.637Z,10.34
2022-09-27T00:07:01.899Z,10.33
2022-09-27T00:07:12.175Z,10.34
2022-09-27T00:07:22.437Z,10.34
2022-09-27T00:07:32.700Z,10.33
2022-09-27T00:07:42.963Z,10.33
2022-09-27T00:07:53.225Z,10.34
2022-09-27T00:08:03.488Z,10.33
2022-09-27T00:08:13.753Z,10.33
2022-09-27T00:08:24.011Z,10.33
2022-09-27T00:08:34.276Z,10.33
2022-09-27T00:08:44.538Z,10.33
2022-09-27T00:08:54.797Z,10.31
2022-09-27T00:09:05.060Z,10.34
2022-09-27T00:09:15.495Z,10.33
2022-09-27T00:09:25.590Z,10.31
2022-09-27T00:09:35.852Z,10.34
2022-09-27T00:09:46.114Z,10.33
2022-09-27T00:09:56.378Z,10.33
2022-09-27T00:10:06.641Z,10.31
2022-09-27T00:10:16.904Z,10.34
2022-09-27T00:10:27.165Z,10.33
2022-09-27T00:10:37.428Z,10.31
2022-09-27T00:10:47.689Z,10.31
2022-09-27T00:10:57.952Z,10.33
2022-09-27T00:11:08.212Z,10.31
2022-09-27T00:11:18.476Z,10.31
2022-09-27T00:11:28.761Z,10.33
2022-09-27T00:11:39.000Z,10.33
2022-09-27T00:11:49.266Z,10.30
2022-09-27T00:11:59.531Z,10.33
2022-09-27T00:12:09.799Z,10.33
2022-09-27T00:12:20.065Z,10.30
2022-09-27T00:12:30.326Z,10.31
2022-09-27T00:12:40.589Z,10.31
2022-09-27T00:12:50.849Z,10.33
2022-09-27T00:13:01.112Z,10.31
2022-09-27T00:13:11.372Z,10.31
2022-09-27T00:13:21.636Z,10.31
2022-09-27T00:13:31.903Z,10.31
2022-09-27T00:13:42.166Z,10.33
2022-09-27T00:13:52.429Z,10.33
2022-09-27T00:14:02.696Z,10.31
2022-09-27T00:14:12.950Z,10.33
2022-09-27T00:14:23.216Z,10.31
2022-09-27T00:14:33.475Z,10.31
2022-09-27T00:14:43.740Z,10.31
2022-09-27T00:14:54.002Z,10.31
2022-09-27T00:15:04.260Z,10.31
2022-09-27T00:15:14.520Z,10.31
2022-09-27T00:15:24.784Z,10.31
2022-09-27T00:15:35.113Z,10.33
2022-09-27T00:15:45.418Z,10.31
2022-09-27T00:15:55.676Z,10.31
2022-09-27T00:16:06.070Z,10.31
2022-09-27T00:16:16.436Z,10.31
2022-09-27T00:16:26.739Z,10.31
2022-09-27T00:16:37.009Z,10.31
2022-09-27T00:16:47.282Z,10.31
2022-09-27T00:16:57.534Z,10.31
2022-09-27T00:17:07.833Z,10.31
2022-09-27T00:17:18.095Z,10.31
2022-09-27T00:17:28.357Z,10.31
2022-09-27T00:17:38.622Z,10.31
2022-09-27T00:17:48.883Z,10.30
2022-09-27T00:17:59.145Z,10.30
2022-09-27T00:18:09.407Z,10.31
2022-09-27T00:18:19.670Z,10.31
2022-09-27T00:18:29.932Z,10.30
2022-09-27T00:18:40.199Z,10.31
2022-09-27T00:18:50.457Z,10.31
2022-09-27T00:19:00.719Z,10.31
2022-09-27T00:19:11.121Z,10.31
2022-09-27T00:19:21.377Z,10.31
2022-09-27T00:19:31.639Z,10.31
2022-09-27T00:19:41.902Z,10.31
2022-09-27T00:19:52.168Z,10.30
2022-09-27T00:20:02.426Z,10.31
2022-09-27T00:20:12.691Z,10.30
2022-09-27T00:20:22.951Z,10.31
2022-09-27T00:20:33.219Z,10.31
2022-09-27T00:20:43.478Z,10.31
2022-09-27T00:20:53.741Z,10.31
2022-09-27T00:21:04.002Z,10.31
2022-09-27T00:21:14.265Z,10.30
2022-09-27T00:21:24.527Z,10.31
2022-09-27T00:21:34.792Z,10.33
2022-09-27T00:21:45.072Z,10.30
2022-09-27T00:21:55.317Z,10.30
2022-09-27T00:22:05.591Z,10.30
2022-09-27T00:22:15.852Z,10.31
2022-09-27T00:22:26.113Z,10.30
2022-09-27T00:22:36.377Z,10.31
2022-09-27T00:22:46.639Z,10.31
2022-09-27T00:22:56.901Z,10.31
2022-09-27T00:23:07.163Z,10.30
2022-09-27T00:23:17.426Z,10.30
2022-09-27T00:23:27.688Z,10.31
2022-09-27T00:23:37.956Z,10.30
2022-09-27T00:23:48.216Z,10.30
2022-09-27T00:23:58.476Z,10.31
2022-09-27T00:24:08.737Z,10.31
2022-09-27T00:24:19.003Z,10.30
2022-09-27T00:24:29.262Z,10.28
2022-09-27T00:24:39.526Z,10.28
2022-09-27T00:24:49.788Z,10.30
2022-09-27T00:25:00.052Z,10.30
2022-09-27T00:25:10.315Z,10.31
2022-09-27T00:25:20.579Z,10.31
2022-09-27T00:25:30.838Z,10.30
2022-09-27T00:25:41.102Z,10.30
2022-09-27T00:25:51.364Z,10.31
2022-09-27T00:26:01.628Z,10.30
2022-09-27T00:26:11.894Z,10.30
2022-09-27T00:26:22.151Z,10.31
2022-09-27T00:26:32.414Z,10.30
2022-09-27T00:26:42.688Z,10.31
2022-09-27T00:26:52.943Z,10.30
2022-09-27T00:27:03.224Z,10.28
2022-09-27T00:27:13.484Z,10.30
2022-09-27T00:27:23.747Z,10.30
2022-09-27T00:27:34.018Z,10.30
2022-09-27T00:27:44.271Z,10.31
2022-09-27T00:27:54.541Z,10.30
2022-09-27T00:28:04.819Z,10.30
2022-09-27T00:28:15.081Z,10.28
2022-09-27T00:28:25.344Z,10.30
2022-09-27T00:28:35.606Z,10.28
2022-09-27T00:28:45.869Z,10.28
2022-09-27T00:28:56.129Z,10.28
2022-09-27T00:29:06.391Z,10.30
2022-09-27T00:29:16.829Z,10.28
2022-09-27T00:29:26.928Z,10.28
2022-09-27T00:29:37.184Z,10.30
2022-09-27T00:29:47.455Z,10.28
2022-09-27T00:29:57.718Z,10.30
2022-09-27T00:30:07.981Z,10.31
2022-09-27T00:30:18.242Z,10.30
2022-09-27T00:30:28.508Z,10.30
2022-09-27T00:30:38.805Z,10.30
2022-09-27T00:30:49.116Z,10.30
2022-09-27T00:30:59.426Z,10.31
2022-09-27T00:31:09.797Z,10.30
2022-09-27T00:31:20.216Z,10.30
2022-09-27T00:31:30.508Z,10.28
2022-09-27T00:31:40.587Z,10.28
2022-09-27T00:31:50.851Z,10.30
2022-09-27T00:32:01.112Z,10.30
2022-09-27T00:32:11.393Z,10.30
2022-09-27T00:32:21.658Z,10.31
2022-09-27T00:32:31.923Z,10.30
2022-09-27T00:32:42.178Z,10.30
2022-09-27T00:32:52.441Z,10.31
2022-09-27T00:33:02.706Z,10.28
2022-09-27T00:33:12.971Z,10.28
2022-09-27T00:33:23.242Z,10.28
2022-09-27T00:33:33.497Z,10.28
2022-09-27T00:33:43.756Z,10.30
2022-09-27T00:33:54.027Z,10.28
2022-09-27T00:34:04.297Z,10.28
2022-09-27T00:34:14.551Z,10.28
2022-09-27T00:34:24.814Z,10.30
2022-09-27T00:34:35.079Z,10.28
2022-09-27T00:34:45.343Z,10.28
2022-09-27T00:34:55.605Z,10.30
2022-09-27T00:35:05.887Z,10.30
2022-09-27T00:35:16.133Z,10.28
2022-09-27T00:35:26.392Z,10.27
2022-09-27T00:35:36.655Z,10.28
2022-09-27T00:35:46.919Z,10.27
2022-09-27T00:35:57.184Z,10.30
2022-09-27T00:36:07.438Z,10.28
2022-09-27T00:36:17.706Z,10.28
2022-09-27T00:36:27.963Z,10.28
2022-09-27T00:36:38.227Z,10.28
2022-09-27T00:36:48.512Z,10.28
2022-09-27T00:36:58.751Z,10.28
2022-09-27T00:37:09.014Z,10.28
2022-09-27T00:37:19.290Z,10.28
2022-09-27T00:37:29.554Z,10.28
2022-09-27T00:37:39.818Z,10.28
2022-09-27T00:37:50.077Z,10.28
2022-09-27T00:38:00.341Z,10.27
2022-09-27T00:38:10.602Z,10.28
2022-09-27T00:38:20.866Z,10.28
2022-09-27T00:38:31.127Z,10.25
2022-09-27T00:38:41.398Z,10.28
2022-09-27T00:38:51.651Z,10.28
2022-09-27T00:39:01.922Z,10.27
2022-09-27T00:39:12.174Z,10.27
2022-09-27T00:39:22.444Z,10.27
2022-09-27T00:39:32.699Z,10.27
2022-09-27T00:39:42.966Z,10.27
2022-09-27T00:39:53.225Z,10.28
2022-09-27T00:40:03.492Z,10.27
2022-09-27T00:40:18.766Z,10.27
2022-09-27T00:40:25.248Z,10.25
2022-09-27T00:40:34.500Z,10.27
2022-09-27T00:40:44.874Z,10.27
2022-09-27T00:40:55.203Z,10.27
2022-09-27T00:41:05.541Z,10.27
2022-09-27T00:41:15.788Z,10.25
2022-09-27T00:41:26.053Z,10.28
2022-09-27T00:41:36.317Z,10.25
2022-09-27T00:41:46.580Z,10.27
2022-09-27T00:41:56.838Z,10.27
2022-09-27T00:42:07.101Z,10.27
2022-09-27T00:42:17.361Z,10.25
2022-09-27T00:42:27.638Z,10.25
2022-09-27T00:42:37.901Z,10.25
2022-09-27T00:42:48.168Z,10.25
2022-09-27T00:42:58.424Z,10.25
2022-09-27T00:43:08.688Z,10.24
2022-09-27T00:43:18.950Z,10.25
2022-09-27T00:43:29.221Z,10.24
2022-09-27T00:43:39.480Z,10.24
2022-09-27T00:43:49.741Z,10.25
2022-09-27T00:44:00.010Z,10.25
2022-09-27T00:44:10.273Z,10.25
2022-09-27T00:44:20.534Z,10.24
2022-09-27T00:44:30.798Z,10.24
2022-09-27T00:44:41.060Z,10.25
2022-09-27T00:44:51.327Z,10.23
2022-09-27T00:45:01.609Z,10.24
2022-09-27T00:45:11.849Z,10.27
2022-09-27T00:45:22.117Z,10.25
2022-09-27T00:45:32.376Z,10.25
2022-09-27T00:45:42.636Z,10.25
2022-09-27T00:45:52.959Z,10.25
2022-09-27T00:46:03.398Z,10.25
2022-09-27T00:46:13.509Z,10.25
2022-09-27T00:46:23.854Z,10.24
2022-09-27T00:46:34.210Z,10.24
2022-09-27T00:46:44.573Z,10.25
2022-09-27T00:46:54.826Z,10.24
2022-09-27T00:47:05.088Z,10.25
2022-09-27T00:47:15.375Z,10.24
2022-09-27T00:47:25.630Z,10.24
2022-09-27T00:47:35.886Z,10.23
2022-09-27T00:47:46.151Z,10.24
2022-09-27T00:47:56.410Z,10.24
2022-09-27T00:48:06.673Z,10.23
2022-09-27T00:48:16.935Z,10.24
2022-09-27T00:48:27.197Z,10.23
2022-09-27T00:48:37.460Z,10.24
2022-09-27T00:48:47.721Z,10.23
2022-09-27T00:48:57.982Z,10.24
2022-09-27T00:49:08.383Z,10.24
2022-09-27T00:49:18.642Z,10.24
2022-09-27T00:49:28.903Z,10.24
2022-09-27T00:49:39.161Z,10.24
2022-09-27T00:49:49.425Z,10.24
2022-09-27T00:49:59.685Z,10.24
2022-09-27T00:50:09.949Z,10.23
2022-09-27T00:50:20.211Z,10.24
2022-09-27T00:50:30.471Z,10.23
2022-09-27T00:50:40.733Z,10.24
2022-09-27T00:50:50.997Z,10.24
2022-09-27T00:51:01.259Z,10.24
2022-09-27T00:51:11.523Z,10.24
2022-09-27T00:51:21.800Z,10.23
2022-09-27T00:51:32.077Z,10.23
2022-09-27T00:51:42.331Z,10.23
2022-09-27T00:51:52.619Z,10.23
2022-09-27T00:52:02.852Z,10.23
2022-09-27T00:52:13.116Z,10.23
2022-09-27T00:52:23.396Z,10.21
2022-09-27T00:52:33.651Z,10.23
2022-09-27T00:52:43.915Z,10.21
2022-09-27T00:52:54.184Z,10.23
2022-09-27T00:53:04.437Z,10.21
2022-09-27T00:53:14.702Z,10.23
2022-09-27T00:53:24.963Z,10.21
2022-09-27T00:53:35.252Z,10.23
2022-09-27T00:53:45.515Z,10.20
2022-09-27T00:53:55.779Z,10.23
2022-09-27T00:54:06.039Z,10.21
2022-09-27T00:54:16.303Z,10.21
2022-09-27T00:54:26.561Z,10.23
2022-09-27T00:54:36.825Z,10.21
2022-09-27T00:54:47.088Z,10.23
2022-09-27T00:54:57.347Z,10.21
2022-09-27T00:55:07.608Z,10.23
2022-09-27T00:55:17.877Z,10.21
2022-09-27T00:55:28.133Z,10.23
2022-09-27T00:55:38.399Z,10.20
2022-09-27T00:55:48.664Z,10.21
2022-09-27T00:55:58.920Z,10.20
2022-09-27T00:56:09.187Z,10.21
2022-09-27T00:56:19.443Z,10.20
2022-09-27T00:56:29.718Z,10.20
2022-09-27T00:56:39.972Z,10.21
2022-09-27T00:56:50.232Z,10.21
2022-09-27T00:57:00.495Z,10.20
2022-09-27T00:57:10.768Z,10.20
2022-09-27T00:57:21.029Z,10.20
2022-09-27T00:57:31.292Z,10.18
2022-09-27T00:57:41.559Z,10.20
2022-09-27T00:57:51.820Z,10.21
2022-09-27T00:58:02.083Z,10.21
2022-09-27T00:58:12.347Z,10.20
2022-09-27T00:58:22.607Z,10.20
2022-09-27T00:58:32.866Z,10.18
2022-09-27T00:58:43.147Z,10.20
2022-09-27T00:58:53.401Z,10.18
2022-09-27T00:59:03.666Z,10.20
2022-09-27T00:59:13.944Z,10.20
2022-09-27T00:59:24.188Z,10.20
2022-09-27T00:59:34.451Z,10.18
2022-09-27T00:59:44.713Z,10.18
2022-09-27T00:59:54.974Z,10.20
2022-09-27T01:00:05.236Z,10.20
2022-09-27T01:00:15.511Z,10.18
2022-09-27T01:00:25.765Z,10.18
2022-09-27T01:00:36.026Z,10.20
2022-09-27T01:00:46.288Z,10.18
2022-09-27T01:00:56.618Z,10.21
2022-09-27T01:01:06.941Z,10.20
2022-09-27T01:01:17.201Z,10.18
2022-09-27T01:01:27.511Z,10.21
2022-09-27T01:01:37.894Z,10.18
2022-09-27T01:01:47.982Z,10.18
2022-09-27T01:01:58.266Z,10.18
2022-09-27T01:02:08.505Z,10.17
2022-09-27T01:02:18.844Z,10.17
2022-09-27T01:02:29.165Z,10.17
2022-09-27T01:02:39.457Z,10.17
2022-09-27T01:02:49.748Z,10.15
2022-09-27T01:03:00.039Z,10.17
2022-09-27T01:03:10.306Z,10.17
2022-09-27T01:03:20.570Z,10.17
2022-09-27T01:03:30.828Z,10.17
2022-09-27T01:03:41.091Z,10.17
2022-09-27T01:03:51.357Z,10.17
2022-09-27T01:04:01.619Z,10.17
2022-09-27T01:04:11.881Z,10.15
2022-09-27T01:04:22.147Z,10.17
2022-09-27T01:04:32.406Z,10.17
2022-09-27T01:04:42.668Z,10.15
2022-09-27T01:04:52.928Z,10.17
2022-09-27T01:05:03.189Z,10.17
2022-09-27T01:05:13.454Z,10.18
2022-09-27T01:05:23.713Z,10.15
2022-09-27T01:05:33.976Z,10.17
2022-09-27T01:05:44.242Z,10.17
2022-09-27T01:05:54.507Z,10.17
2022-09-27T01:06:04.760Z,10.17
2022-09-27T01:06:15.023Z,10.17
2022-09-27T01:06:25.287Z,10.17
2022-09-27T01:06:35.548Z,10.15
2022-09-27T01:06:45.810Z,10.17
2022-09-27T01:06:56.092Z,10.17
2022-09-27T01:07:06.334Z,10.17
2022-09-27T01:07:16.609Z,10.15
2022-09-27T01:07:26.884Z,10.17
2022-09-27T01:07:37.138Z,10.17
2022-09-27T01:07:47.396Z,10.17
2022-09-27T01:07:57.660Z,10.15
2022-09-27T01:08:07.921Z,10.15
2022-09-27T01:08:18.185Z,10.15
2022-09-27T01:08:28.444Z,10.13
2022-09-27T01:08:38.707Z,10.15
2022-09-27T01:08:48.968Z,10.15
2022-09-27T01:08:59.235Z,10.13
2022-09-27T01:09:09.497Z,10.13
2022-09-27T01:09:19.755Z,10.17
2022-09-27T01:09:30.017Z,10.15
2022-09-27T01:09:40.279Z,10.15
2022-09-27T01:09:50.541Z,10.15
2022-09-27T01:10:00.803Z,10.13
2022-09-27T01:10:11.067Z,10.15
2022-09-27T01:10:21.327Z,10.15
2022-09-27T01:10:31.590Z,10.13
2022-09-27T01:10:41.853Z,10.13
2022-09-27T01:10:52.113Z,10.13
2022-09-27T01:11:02.380Z,10.13
2022-09-27T01:11:12.638Z,10.15
2022-09-27T01:11:22.901Z,10.15
2022-09-27T01:11:33.165Z,10.15
2022-09-27T01:11:43.429Z,10.15
2022-09-27T01:11:53.687Z,10.15
2022-09-27T01:12:03.954Z,10.15
2022-09-27T01:12:14.225Z,10.13
2022-09-27T01:12:24.548Z,10.13
2022-09-27T01:12:34.808Z,10.13
2022-09-27T01:12:45.093Z,10.13
2022-09-27T01:12:55.334Z,10.13
2022-09-27T01:13:05.597Z,10.15
2022-09-27T01:13:15.865Z,10.13
2022-09-27T01:13:26.126Z,10.13
2022-09-27T01:13:36.411Z,10.13
2022-09-27T01:13:46.668Z,10.13
2022-09-27T01:13:56.939Z,10.15
2022-09-27T01:14:07.193Z,10.15
2022-09-27T01:14:17.452Z,10.12
2022-09-27T01:14:27.715Z,10.13
2022-09-27T01:14:37.982Z,10.13
2022-09-27T01:14:48.260Z,10.12
2022-09-27T01:14:58.500Z,10.10
2022-09-27T01:15:08.765Z,10.15
2022-09-27T01:15:19.028Z,10.13
2022-09-27T01:15:29.324Z,10.12
2022-09-27T01:15:39.574Z,10.12
2022-09-27T01:15:49.859Z,10.15
2022-09-27T01:16:00.205Z,10.12
2022-09-27T01:16:10.588Z,10.13
2022-09-27T01:16:20.943Z,10.12
2022-09-27T01:16:31.191Z,10.13
2022-09-27T01:16:41.450Z,10.13
2022-09-27T01:16:51.713Z,10.13
2022-09-27T01:17:01.982Z,10.12
2022-09-27T01:17:12.261Z,10.12
2022-09-27T01:17:22.523Z,10.13
2022-09-27T01:17:32.787Z,10.12
2022-09-27T01:17:43.045Z,10.12
2022-09-27T01:17:53.310Z,10.12
2022-09-27T01:18:03.571Z,10.13
2022-09-27T01:18:13.836Z,10.13
2022-09-27T01:18:24.096Z,10.10
2022-09-27T01:18:34.361Z,10.12
2022-09-27T01:18:44.623Z,10.12
2022-09-27T01:18:54.885Z,10.12
2022-09-27T01:19:05.148Z,10.13
2022-09-27T01:19:15.526Z,10.12
2022-09-27T01:19:25.781Z,10.12
2022-09-27T01:19:36.043Z,10.10
2022-09-27T01:19:46.307Z,10.09
2022-09-27T01:19:56.569Z,10.10
2022-09-27T01:20:06.833Z,10.12
2022-09-27T01:20:17.094Z,10.09
2022-09-27T01:20:27.358Z,10.10
2022-09-27T01:20:37.624Z,10.12
2022-09-27T01:20:47.882Z,10.10
2022-09-27T01:20:58.146Z,10.10
2022-09-27T01:21:08.406Z,10.10
2022-09-27T01:21:18.671Z,10.12
2022-09-27T01:21:28.930Z,10.10
2022-09-27T01:21:39.195Z,10.10
2022-09-27T01:21:49.455Z,10.10
2022-09-27T01:21:59.741Z,10.10
2022-09-27T01:22:09.981Z,10.12
2022-09-27T01:22:20.255Z,10.10
2022-09-27T01:22:30.521Z,10.09
2022-09-27T01:22:40.779Z,10.10
2022-09-27T01:22:51.043Z,10.10
2022-09-27T01:23:01.306Z,10.10
2022-09-27T01:23:11.566Z,10.10
2022-09-27T01:23:21.828Z,10.09
2022-09-27T01:23:32.091Z,10.10
2022-09-27T01:23:42.355Z,10.10
2022-09-27T01:23:52.617Z,10.10
2022-09-27T01:24:02.879Z,10.09
2022-09-27T01:24:13.139Z,10.10
2022-09-27T01:24:23.403Z,10.09
2022-09-27T01:24:33.664Z,10.09
2022-09-27T01:24:43.929Z,10.10
2022-09-27T01:24:54.190Z,10.09
2022-09-27T01:25:04.452Z,10.09
2022-09-27T01:25:14.715Z,10.07
2022-09-27T01:25:24.979Z,10.09
2022-09-27T01:25:35.240Z,10.09
2022-09-27T01:25:45.505Z,10.09
2022-09-27T01:25:55.769Z,10.09
2022-09-27T01:26:06.032Z,10.07
2022-09-27T01:26:16.293Z,10.10
2022-09-27T01:26:26.558Z,10.10
2022-09-27T01:26:36.819Z,10.09
2022-09-27T01:26:47.081Z,10.09
2022-09-27T01:26:57.345Z,10.09
2022-09-27T01:27:07.606Z,10.10
2022-09-27T01:27:17.868Z,10.09
2022-09-27T01:27:28.142Z,10.09
2022-09-27T01:27:38.405Z,10.09
2022-09-27T01:27:48.666Z,10.09
2022-09-27T01:27:58.926Z,10.07
2022-09-27T01:28:09.189Z,10.09
2022-09-27T01:28:19.454Z,10.07
2022-09-27T01:28:29.719Z,10.07
2022-09-27T01:28:39.976Z,10.09
2022-09-27T01:28:50.239Z,10.07
2022-09-27T01:29:00.502Z,10.06
2022-09-27T01:29:10.791Z,10.09
2022-09-27T01:29:21.025Z,10.09
2022-09-27T01:29:31.288Z,10.06
2022-09-27T01:29:41.548Z,10.07
2022-09-27T01:29:51.811Z,10.07
2022-09-27T01:30:02.080Z,10.09
2022-09-27T01:30:12.335Z,10.07
2022-09-27T01:30:22.598Z,10.07
2022-09-27T01:30:32.866Z,10.07
2022-09-27T01:30:43.245Z,10.07
2022-09-27T01:30:53.605Z,10.06
2022-09-27T01:31:03.964Z,10.07
2022-09-27T01:31:14.267Z,10.05
2022-09-27T01:31:24.602Z,10.06
2022-09-27T01:31:34.971Z,10.07
2022-09-27T01:31:45.237Z,10.09
2022-09-27T01:31:55.501Z,10.07
2022-09-27T01:32:05.780Z,10.06
2022-09-27T01:32:16.053Z,10.05
2022-09-27T01:32:26.317Z,10.05
2022-09-27T01:32:36.578Z,10.07
2022-09-27T01:32:46.841Z,10.07
2022-09-27T01:32:57.103Z,10.06
2022-09-27T01:33:07.367Z,10.06
2022-09-27T01:33:17.632Z,10.05
2022-09-27T01:33:27.892Z,10.05
2022-09-27T01:33:38.153Z,10.06
2022-09-27T01:33:48.415Z,10.06
2022-09-27T01:33:58.676Z,10.06
2022-09-27T01:34:08.939Z,10.05
2022-09-27T01:34:19.202Z,10.06
2022-09-27T01:34:29.463Z,10.05
2022-09-27T01:34:39.725Z,10.06
2022-09-27T01:34:49.992Z,10.06
2022-09-27T01:35:00.258Z,10.05
2022-09-27T01:35:10.521Z,10.05
2022-09-27T01:35:20.783Z,10.05
2022-09-27T01:35:31.046Z,10.06
2022-09-27T01:35:41.307Z,10.05
2022-09-27T01:35:51.576Z,10.06
2022-09-27T01:36:01.832Z,10.06
2022-09-27T01:36:12.097Z,10.05
2022-09-27T01:36:22.356Z,10.06
2022-09-27T01:36:32.626Z,10.05
2022-09-27T01:36:42.882Z,10.05
2022-09-27T01:36:53.143Z,10.05
2022-09-27T01:37:03.438Z,10.06
2022-09-27T01:37:13.681Z,10.05
2022-09-27T01:37:23.947Z,10.05
2022-09-27T01:37:34.206Z,10.05
2022-09-27T01:37:44.468Z,10.05
2022-09-27T01:37:54.733Z,10.06
2022-09-27T01:38:04.995Z,10.06
2022-09-27T01:38:15.256Z,10.05
2022-09-27T01:38:25.517Z,10.03
2022-09-27T01:38:35.782Z,10.03
2022-09-27T01:38:46.047Z,10.03
2022-09-27T01:38:56.335Z,10.03
2022-09-27T01:39:06.565Z,10.05
2022-09-27T01:39:16.990Z,10.03
2022-09-27T01:39:27.086Z,10.03
2022-09-27T01:39:37.346Z,10.03
2022-09-27T01:39:47.609Z,10.05
2022-09-27T01:39:57.873Z,10.03
2022-09-27T01:40:08.134Z,10.05
2022-09-27T01:40:18.529Z,10.03
2022-09-27T01:40:28.818Z,10.02
2022-09-27T01:40:39.116Z,10.05
2022-09-27T01:40:49.457Z,10.02
2022-09-27T01:40:59.771Z,10.03
2022-09-27T01:41:10.018Z,10.02
2022-09-27T01:41:20.282Z,10.03
2022-09-27T01:41:30.568Z,10.03
2022-09-27T01:41:40.821Z,10.03
2022-09-27T01:41:51.098Z,10.03
2022-09-27T01:42:01.364Z,10.03
2022-09-27T01:42:13.115Z,10.03
2022-09-27T01:42:22.455Z,10.03
2022-09-27T01:42:32.193Z,10.02
2022-09-27T01:42:42.454Z,10.02
2022-09-27T01:42:52.718Z,10.02
2022-09-27T01:43:02.981Z,10.02
2022-09-27T01:43:13.242Z,10.02
2022-09-27T01:43:23.504Z,10.02
2022-09-27T01:43:33.765Z,10.00
2022-09-27T01:43:44.030Z,10.02
2022-09-27T01:43:54.288Z,10.00
2022-09-27T01:44:04.550Z,10.02
2022-09-27T01:44:14.812Z,10.00
2022-09-27T01:44:25.076Z,10.00
2022-09-27T01:44:35.337Z,10.02
2022-09-27T01:44:45.601Z,10.00
2022-09-27T01:44:55.862Z,10.00
2022-09-27T01:45:06.124Z,10.00
2022-09-27T01:45:16.387Z,10.02
2022-09-27T01:45:26.651Z,10.00
2022-09-27T01:45:36.910Z,9.99
2022-09-27T01:45:47.234Z,10.00
2022-09-27T01:45:57.562Z,10.02
2022-09-27T01:46:07.859Z,9.99
2022-09-27T01:46:18.137Z,9.99
2022-09-27T01:46:28.499Z,10.00
2022-09-27T01:46:38.811Z,10.02
2022-09-27T01:46:49.063Z,10.00
2022-09-27T01:46:59.325Z,10.00
2022-09-27T01:47:09.588Z,9.99
2022-09-27T01:47:19.850Z,9.99
2022-09-27T01:47:30.115Z,10.02
2022-09-27T01:47:40.375Z,9.99
2022-09-27T01:47:50.640Z,9.99
2022-09-27T01:48:00.901Z,10.00
2022-09-27T01:48:11.165Z,10.00
2022-09-27T01:48:21.457Z,10.00
2022-09-27T01:48:31.689Z,10.00
2022-09-27T01:48:41.950Z,10.00
2022-09-27T01:48:52.213Z,10.00
2022-09-27T01:49:02.473Z,9.99
2022-09-27T01:49:12.737Z,9.97
2022-09-27T01:49:22.999Z,10.00
2022-09-27T01:49:33.270Z,9.99
2022-09-27T01:49:43.525Z,9.97
2022-09-27T01:49:53.789Z,9.99
2022-09-27T01:50:04.050Z,9.99
2022-09-27T01:50:14.312Z,9.99
2022-09-27T01:50:24.582Z,9.97
2022-09-27T01:50:34.838Z,9.99
2022-09-27T01:50:45.103Z,9.97
2022-09-27T01:50:55.361Z,9.99
2022-09-27T01:51:05.622Z,9.97
2022-09-27T01:51:15.886Z,9.99
2022-09-27T01:51:26.148Z,9.99
2022-09-27T01:51:36.411Z,9.99
2022-09-27T01:51:46.671Z,9.99
2022-09-27T01:51:56.947Z,9.97
2022-09-27T01:52:07.230Z,9.97
2022-09-27T01:52:17.471Z,9.97
2022-09-27T01:52:27.739Z,9.97
2022-09-27T01:52:37.999Z,9.99
2022-09-27T01:52:48.262Z,10.00
2022-09-27T01:52:58.522Z,9.95
2022-09-27T01:53:08.784Z,9.95
2022-09-27T01:53:19.050Z,9.95
2022-09-27T01:53:29.323Z,9.97
2022-09-27T01:53:39.585Z,9.97
2022-09-27T01:53:49.844Z,9.97
2022-09-27T01:54:00.107Z,9.97
2022-09-27T01:54:10.368Z,9.97
2022-09-27T01:54:20.631Z,9.95
2022-09-27T01:54:30.894Z,9.97
2022-09-27T01:54:41.168Z,9.94
2022-09-27T01:54:51.419Z,9.95
2022-09-27T01:55:01.684Z,9.97
2022-09-27T01:55:11.943Z,9.95
2022-09-27T01:55:22.206Z,9.97
2022-09-27T01:55:32.467Z,9.97
2022-09-27T01:55:42.731Z,9.94
2022-09-27T01:55:52.994Z,9.94
2022-09-27T01:56:03.256Z,9.97
2022-09-27T01:56:13.522Z,9.97
2022-09-27T01:56:23.780Z,9.97
2022-09-27T01:56:34.042Z,9.97
2022-09-27T01:56:44.304Z,9.94
2022-09-27T01:56:54.615Z,9.97
2022-09-27T01:57:04.845Z,9.95
2022-09-27T01:57:15.114Z,9.95
2022-09-27T01:57:25.368Z,9.97
2022-09-27T01:57:35.630Z,9.95
2022-09-27T01:57:45.894Z,9.94
2022-09-27T01:57:56.155Z,9.95
2022-09-27T01:58:06.419Z,9.94
2022-09-27T01:58:16.690Z,9.94
2022-09-27T01:58:26.954Z,9.94
2022-09-27T01:58:37.217Z,9.94
2022-09-27T01:58:47.480Z,9.94
2022-09-27T01:58:57.748Z,9.94
2022-09-27T01:59:08.053Z,9.92
2022-09-27T01:59:18.282Z,9.94
2022-09-27T01:59:28.546Z,9.92
2022-09-27T01:59:38.808Z,9.94
2022-09-27T01:59:49.069Z,9.94
2022-09-27T01:59:59.331Z,9.94
2022-09-27T02:00:09.595Z,9.94
2022-09-27T02:00:19.856Z,9.92
2022-09-27T02:00:30.120Z,9.94
2022-09-27T02:00:40.382Z,9.95
2022-09-27T02:00:50.645Z,9.92
2022-09-27T02:01:01.003Z,9.94
2022-09-27T02:01:11.341Z,9.92
2022-09-27T02:01:21.652Z,9.94
2022-09-27T02:01:31.938Z,9.92
2022-09-27T02:01:42.274Z,9.94
2022-09-27T02:01:52.652Z,9.92
2022-09-27T02:02:02.895Z,9.91
2022-09-27T02:02:13.207Z,9.92
2022-09-27T02:02:23.520Z,9.91
2022-09-27T02:02:33.819Z,9.94
2022-09-27T02:02:44.124Z,9.92
2022-09-27T02:02:54.434Z,9.92
2022-09-27T02:03:04.825Z,9.91
2022-09-27T02:03:15.094Z,9.92
2022-09-27T02:03:25.354Z,9.91
2022-09-27T02:03:35.616Z,9.92
2022-09-27T02:03:45.879Z,9.92
2022-09-27T02:03:56.145Z,9.91
2022-09-27T02:04:06.409Z,9.91
2022-09-27T02:04:16.668Z,9.91
2022-09-27T02:04:26.930Z,9.92
2022-09-27T02:04:37.194Z,9.91
2022-09-27T02:04:47.457Z,9.91
2022-09-27T02:04:57.721Z,9.92
2022-09-27T02:05:07.983Z,9.88
2022-09-27T02:05:18.245Z,9.91
2022-09-27T02:05:28.507Z,9.91
2022-09-27T02:05:38.769Z,9.91
2022-09-27T02:05:49.032Z,9.90
2022-09-27T02:05:59.300Z,9.91
2022-09-27T02:06:10.984Z,9.91
2022-09-27T02:06:19.924Z,9.91
2022-09-27T02:06:30.184Z,9.90
2022-09-27T02:06:40.448Z,9.91
2022-09-27T02:06:50.732Z,9.91
2022-09-27T02:07:00.994Z,9.92
2022-09-27T02:07:11.273Z,9.92
2022-09-27T02:07:21.509Z,9.91
2022-09-27T02:07:31.771Z,9.91
2022-09-27T02:07:42.035Z,9.91
2022-09-27T02:07:52.298Z,9.91
2022-09-27T02:08:02.560Z,9.91
2022-09-27T02:08:12.820Z,9.91
2022-09-27T02:08:23.083Z,9.90
2022-09-27T02:08:33.346Z,9.91
2022-09-27T02:08:43.609Z,9.92
2022-09-27T02:08:53.871Z,9.88
2022-09-27T02:09:04.134Z,9.90
2022-09-27T02:09:14.396Z,9.90
2022-09-27T02:09:24.661Z,9.91
2022-09-27T02:09:34.919Z,9.90
2022-09-27T02:09:45.185Z,9.91
2022-09-27T02:09:55.452Z,9.90
2022-09-27T02:10:05.718Z,9.90
2022-09-27T02:10:15.979Z,9.90
2022-09-27T02:10:26.244Z,9.90
2022-09-27T02:10:36.502Z,9.90
2022-09-27T02:10:46.764Z,9.90
2022-09-27T02:10:57.027Z,9.90
2022-09-27T02:11:07.289Z,9.88
2022-09-27T02:11:17.550Z,9.90
2022-09-27T02:11:27.814Z,9.88
2022-09-27T02:11:38.076Z,9.91
2022-09-27T02:11:51.683Z,9.88
2022-09-27T02:11:59.565Z,9.90
2022-09-27T02:12:08.966Z,9.88
2022-09-27T02:12:19.227Z,9.88
2022-09-27T02:12:29.491Z,9.87
2022-09-27T02:12:39.751Z,9.88
2022-09-27T02:12:50.016Z,9.88
2022-09-27T02:13:00.277Z,9.88